CDT,Max TemperatureF,Mean TemperatureF,Min TemperatureF,Max Dew PointF,MeanDew PointF,Min DewpointF,Max Humidity, Mean Humidity, Min Humidity, Max Sea Level PressureIn, Mean Sea Level PressureIn, Min Sea Level PressureIn, Max VisibilityMiles, Mean VisibilityMiles, Min VisibilityMiles, Max Wind SpeedMPH, Mean Wind SpeedMPH, Max Gust SpeedMPH,PrecipitationIn, CloudCover, Events, WindDirDegrees
2013-5-1,50,41,32,45,36,32,100,96,81,30.40,30.22,29.95,10,4,0,29,20,48,0.23,8,Fog-Rain-Snow,13
2013-5-2,44,38,32,32,29,25,93,75,57,30.51,30.44,30.38,10,10,10,29,20,37,0.00,4,,2
2013-5-3,41,36,30,36,30,27,100,81,61,30.37,30.18,30.05,10,10,3,24,17,31,0.00,6,Snow,9
2013-5-4,41,37,33,41,37,32,100,99,93,30.13,30.05,29.98,10,6,1,28,20,34,0.04,8,Rain-Snow,17
2013-5-5,53,46,39,50,45,39,100,96,87,30.15,30.12,30.09,10,7,1,16,12,22,0.00,8,Rain,355
2013-5-6,64,54,44,52,49,45,100,83,59,30.13,30.09,30.04,10,8,1,10,7,13,0.00,5,,322
2013-5-7,75,62,48,54,48,41,100,65,31,30.08,30.02,29.96,10,9,4,14,5,22,0.00,2,,177
2013-5-8,68,60,53,61,54,50,100,85,56,29.99,29.96,29.93,10,7,0,17,7,21,0.00,7,Rain,171
2013-5-9,64,57,50,61,55,48,100,94,77,30.01,29.93,29.89,10,6,0,23,10,30,0.00,8,,23
2013-5-10,66,52,39,48,42,34,100,66,37,30.08,30.03,29.97,10,10,8,21,14,30,0.00,2,,345
2013-5-11,55,48,39,45,26,18,76,42,24,30.22,30.16,29.98,10,10,10,31,17,43,0.00,1,,334
2013-5-12,60,45,30,23,19,16,69,35,19,30.26,30.19,30.11,10,10,10,14,8,21,0.00,0,,316
2013-5-13,80,61,42,48,36,21,53,37,26,30.11,29.96,29.78,10,10,6,30,13,41,0.00,0,,195
2013-5-14,102,80,59,57,47,30,82,38,12,29.79,29.69,29.58,10,10,8,32,15,45,0.00,0,,254
2013-5-15,80,68,57,46,41,30,59,39,20,29.97,29.88,29.75,10,10,9,22,13,30,0.00,0,,53
2013-5-16,86,72,57,63,49,41,100,57,22,29.92,29.86,29.77,10,10,1,28,10,39,0.40,2,Rain,118
2013-5-17,82,71,60,66,62,61,100,78,48,29.91,29.86,29.82,10,8,0,20,10,22,0.00,3,Fog,145
2013-5-18,84,72,59,63,61,59,100,72,42,29.94,29.86,29.74,10,10,9,22,12,29,0.00,2,,158
2013-5-19,71,66,60,66,63,59,100,92,73,29.77,29.65,29.52,10,8,1,20,10,30,0.45,4,Rain,163
2013-5-20,71,63,55,61,57,52,100,82,60,29.60,29.55,29.50,10,8,2,24,13,33,0.01,5,Rain,210
2013-5-21,60,56,53,57,52,48,100,86,67,29.65,29.60,29.53,10,9,2,23,13,26,0.00,8,Rain,247
2013-5-22,55,52,48,55,51,48,100,96,82,29.95,29.77,29.65,10,7,2,20,11,24,0.06,8,Rain,333
2013-5-23,66,57,48,50,44,34,100,66,30,30.29,30.16,29.95,10,10,5,20,14,25,0.00,2,,41
2013-5-24,75,60,44,48,43,37,81,55,33,30.31,30.22,30.11,10,10,10,26,14,33,0.00,2,,140
2013-5-25,59,54,50,57,52,46,100,93,63,30.15,30.09,30.02,10,7,0,30,19,41,1.03,8,Fog-Rain,130
2013-5-26,59,54,50,59,54,50,100,100,100,30.10,30.00,29.91,10,3,0,31,21,38,2.84,7,Fog-Rain,108
2013-5-27,64,58,53,63,58,54,100,99,88,30.00,29.80,29.72,10,7,0,29,14,34,0.63,8,Rain,49
2013-5-28,71,64,57,66,62,57,100,96,78,29.75,29.71,29.66,10,6,0,18,7,13,0.01,5,Fog-Rain,48
2013-5-29,71,66,62,72,67,63,100,99,88,29.76,29.67,29.58,10,8,0,29,13,38,0.26,4,Rain,155
2013-5-30,71,66,62,66,64,57,100,93,77,29.61,29.55,29.48,10,10,4,25,17,31,0.11,5,Rain,178
2013-5-31,75,65,55,57,53,48,100,66,41,29.63,29.59,29.57,10,10,10,31,17,41,0.00,1,,224